createdAt,value
2023-03-26T08:11:48.447Z,3.85
2023-03-26T08:14:33.553Z,5.15
2023-03-26T08:17:07.457Z,3.80
2023-03-26T08:19:48.999Z,4.65
2023-03-26T08:22:26.086Z,4.77
2023-03-26T08:25:16.701Z,8.43
2023-03-26T08:27:55.753Z,4.07
2023-03-26T08:30:25.466Z,2.95
2023-03-26T08:32:57.231Z,2.90
2023-03-26T08:35:26.178Z,5.40
2023-03-26T08:37:54.063Z,3.55
2023-03-26T08:40:42.892Z,3.97
2023-03-26T08:43:27.684Z,3.28
2023-03-26T08:46:23.321Z,3.10
2023-03-26T08:49:02.101Z,4.30
2023-03-26T08:52:07.343Z,5.70
2023-03-26T08:55:06.147Z,2.97
2023-03-26T08:58:19.846Z,3.30
2023-03-26T09:01:12.905Z,4.82
2023-03-26T09:04:09.660Z,5.00
2023-03-26T09:07:06.740Z,6.82
2023-03-26T09:09:57.313Z,6.80
2023-03-26T09:13:01.631Z,5.38
2023-03-26T09:15:47.344Z,4.55
2023-03-26T09:18:55.131Z,4.35
2023-03-26T09:22:00.843Z,6.13
2023-03-26T09:25:06.418Z,4.65
2023-03-26T09:27:40.243Z,6.10
2023-03-26T09:30:43.140Z,6.25
2023-03-26T09:35:56.049Z,5.15
2023-03-26T09:38:43.924Z,4.43
2023-03-26T09:41:16.987Z,6.35
2023-03-26T09:44:12.581Z,5.18
2023-03-26T09:46:52.704Z,3.30
2023-03-26T18:05:43.749Z,0.93
2023-03-26T18:08:33.969Z,0.93
2023-03-26T18:11:16.287Z,0.57
2023-03-26T18:14:14.765Z,0.50
2023-03-26T18:16:46.749Z,1.10
2023-03-26T18:19:19.423Z,0.40
2023-03-26T18:21:50.756Z,0.65
2023-03-26T18:24:22.692Z,0.40
2023-03-26T18:26:54.752Z,0.85
2023-03-26T18:29:25.586Z,1.27
2023-03-26T18:32:00.355Z,3.75
2023-03-26T18:34:31.523Z,0.50
2023-03-26T18:37:14.623Z,0.52
2023-03-26T18:39:42.827Z,0.50
2023-03-26T18:42:22.790Z,0.73
2023-03-26T18:47:21.601Z,0.40
2023-03-26T18:49:54.832Z,0.60
2023-03-26T18:52:24.410Z,1.80
2023-03-26T20:09:44.211Z,0.60
2023-03-26T20:12:12.841Z,0.50
2023-03-26T20:14:41.330Z,1.77
2023-03-26T20:17:13.558Z,0.77
2023-03-26T20:22:14.490Z,0.65
2023-03-26T20:24:44.694Z,0.60
2023-03-26T20:27:14.131Z,0.60
2023-03-26T20:29:43.157Z,0.73
2023-03-26T20:32:23.054Z,0.50
2023-03-26T20:34:52.295Z,0.50
2023-03-26T20:37:20.107Z,1.60
2023-03-26T20:39:49.295Z,0.70
2023-03-26T20:42:17.330Z,0.40
2023-03-26T20:44:45.130Z,0.43
2023-03-26T20:47:13.131Z,0.68
2023-03-26T20:49:41.138Z,0.60
2023-03-26T20:52:08.925Z,0.75
2023-03-26T20:54:36.808Z,0.57
2023-03-26T20:57:06.031Z,1.02
2023-03-26T20:59:34.516Z,0.75
2023-03-26T21:02:02.382Z,1.20
2023-03-26T21:04:30.488Z,0.38
2023-03-26T21:07:07.025Z,0.85
2023-03-26T21:09:39.668Z,0.47
2023-03-26T21:12:17.697Z,0.70
2023-03-26T21:14:46.619Z,1.90
2023-03-26T21:17:17.026Z,0.57
2023-03-26T21:19:45.802Z,0.40
2023-03-26T21:22:25.704Z,0.40
